createdAt,value
2022-12-19T00:01:33.873Z,-3.86
2022-12-19T00:04:08.372Z,-3.83
2022-12-19T00:06:37.045Z,-3.83
2022-12-19T00:09:04.080Z,-3.81
2022-12-19T00:11:31.510Z,-3.78
2022-12-19T00:13:59.057Z,-3.72
2022-12-19T00:16:28.127Z,-3.71
2022-12-19T00:18:56.881Z,-3.70
2022-12-19T00:21:26.028Z,-3.68
2022-12-19T00:23:53.107Z,-3.67
2022-12-19T00:26:25.528Z,-3.67
2022-12-19T00:28:54.699Z,-3.68
2022-12-19T00:31:24.349Z,-3.64
2022-12-19T00:33:51.208Z,-3.64
2022-12-19T00:36:23.789Z,-3.65
2022-12-19T00:38:52.408Z,-3.68
2022-12-19T00:41:22.168Z,-3.67
2022-12-19T00:44:00.294Z,-3.72
2022-12-19T00:46:27.906Z,-3.69
2022-12-19T00:48:55.401Z,-3.70
2022-12-19T00:51:24.608Z,-3.69
2022-12-19T00:53:53.292Z,-3.77
2022-12-19T00:56:29.882Z,-3.78
2022-12-19T00:58:57.309Z,-3.75
2022-12-19T01:01:27.970Z,-3.76
2022-12-19T01:06:42.376Z,-3.83
2022-12-19T01:09:11.152Z,-3.80
2022-12-19T01:11:56.260Z,-3.82
2022-12-19T01:14:23.666Z,-3.78
2022-12-19T01:16:51.373Z,-3.78
2022-12-19T01:19:18.128Z,-3.75
2022-12-19T01:21:45.089Z,-3.72
2022-12-19T01:24:12.404Z,-3.68
2022-12-19T01:26:40.491Z,-3.66
2022-12-19T01:29:07.214Z,-3.62
2022-12-19T01:31:34.161Z,-3.57
2022-12-19T01:34:01.495Z,-3.54
2022-12-19T01:36:28.496Z,-3.52
2022-12-19T01:38:57.800Z,-3.50
2022-12-19T01:41:24.627Z,-3.49
2022-12-19T01:44:00.916Z,-3.47
2022-12-19T01:46:34.014Z,-3.47
2022-12-19T01:49:02.626Z,-3.47
2022-12-19T01:51:37.396Z,-3.44
2022-12-19T01:54:07.796Z,-3.47
2022-12-19T01:56:42.583Z,-3.48
2022-12-19T01:59:16.737Z,-3.49
2022-12-19T02:01:51.766Z,-3.47
2022-12-19T02:04:20.343Z,-3.45
2022-12-19T02:06:48.410Z,-3.41
2022-12-19T02:09:15.982Z,-3.34
2022-12-19T02:11:42.568Z,-3.26
2022-12-19T02:14:09.369Z,-3.18
2022-12-19T02:16:57.363Z,-3.07
2022-12-19T02:19:48.442Z,-3.00
2022-12-19T02:22:40.977Z,-2.97
2022-12-19T02:25:19.418Z,-2.92
2022-12-19T02:28:06.722Z,-2.91
2022-12-19T02:31:13.801Z,-2.83
2022-12-19T02:34:05.919Z,-2.79
2022-12-19T02:36:43.423Z,-2.75
2022-12-19T02:39:18.599Z,-2.65
2022-12-19T02:41:52.833Z,-2.60
2022-12-19T02:44:26.117Z,-2.55
2022-12-19T02:46:53.447Z,-2.54
2022-12-19T02:49:24.908Z,-2.56
2022-12-19T02:51:57.515Z,-2.56
2022-12-19T02:54:24.827Z,-2.56
2022-12-19T02:57:05.181Z,-2.54
2022-12-19T03:00:03.541Z,-2.51
2022-12-19T03:02:53.846Z,-2.46
2022-12-19T03:05:31.595Z,-2.37
2022-12-19T03:07:58.139Z,-2.33
2022-12-19T03:10:36.777Z,-2.31
2022-12-19T03:13:12.119Z,-2.28
2022-12-19T03:15:41.638Z,-2.33
2022-12-19T03:18:08.580Z,-2.35
2022-12-19T03:20:44.868Z,-2.37
2022-12-19T03:23:12.941Z,-2.37
2022-12-19T03:25:42.868Z,-2.37
2022-12-19T03:28:14.120Z,-2.33
2022-12-19T03:30:44.508Z,-2.31
2022-12-19T03:33:13.729Z,-2.25
2022-12-19T03:35:41.568Z,-2.22
2022-12-19T03:38:12.244Z,-2.17
2022-12-19T03:40:40.978Z,-2.17
2022-12-19T03:43:10.758Z,-2.17
2022-12-19T03:45:44.048Z,-2.21
2022-12-19T03:48:17.637Z,-2.18
2022-12-19T03:50:48.543Z,-2.15
2022-12-19T03:53:35.405Z,-2.11
2022-12-19T03:56:23.284Z,-2.02
2022-12-19T03:58:59.196Z,-1.95
2022-12-19T04:01:27.970Z,-1.87
2022-12-19T04:03:58.166Z,-1.75
2022-12-19T04:06:28.394Z,-1.62
2022-12-19T04:08:57.055Z,-1.49
2022-12-19T04:11:30.588Z,-1.34
2022-12-19T04:14:08.505Z,-1.24
2022-12-19T04:16:45.933Z,-1.17
2022-12-19T04:19:20.895Z,-1.13
2022-12-19T04:21:56.493Z,-1.12
2022-12-19T04:24:29.101Z,-1.16
2022-12-19T04:26:57.512Z,-1.21
2022-12-19T04:29:26.800Z,-1.25
2022-12-19T04:31:53.763Z,-1.28
2022-12-19T04:34:21.279Z,-1.24
2022-12-19T04:36:50.376Z,-1.22
2022-12-19T04:39:17.085Z,-1.26
2022-12-19T04:41:43.666Z,-1.29
2022-12-19T04:44:10.269Z,-1.30
2022-12-19T04:46:36.805Z,-1.27
2022-12-19T04:49:03.528Z,-1.24
2022-12-19T04:51:30.527Z,-1.20
2022-12-19T04:53:57.501Z,-1.18
2022-12-19T04:56:24.348Z,-1.18
2022-12-19T04:58:56.606Z,-1.17
2022-12-19T05:01:23.213Z,-1.18
2022-12-19T05:03:54.315Z,-1.13
2022-12-19T05:06:22.901Z,-1.09
2022-12-19T05:08:49.437Z,-0.99
2022-12-19T05:11:19.750Z,-0.93
2022-12-19T05:13:47.294Z,-0.96
2022-12-19T05:16:15.861Z,-0.92
2022-12-19T05:18:42.907Z,-0.87
2022-12-19T05:21:09.802Z,-0.80
2022-12-19T05:23:36.661Z,-0.78
2022-12-19T05:26:04.852Z,-0.81
2022-12-19T05:28:32.858Z,-0.84
2022-12-19T05:31:04.506Z,-0.87
2022-12-19T05:33:31.215Z,-0.84
2022-12-19T05:35:57.918Z,-0.81
2022-12-19T05:38:25.484Z,-0.77
2022-12-19T05:40:52.148Z,-0.72
2022-12-19T05:43:18.713Z,-0.67
2022-12-19T05:45:45.287Z,-0.64
2022-12-19T05:48:11.946Z,-0.58
2022-12-19T05:50:38.553Z,-0.50
2022-12-19T05:53:05.412Z,-0.42
2022-12-19T05:55:32.192Z,-0.35
2022-12-19T05:57:58.825Z,-0.29
2022-12-19T06:00:25.897Z,-0.19
2022-12-19T06:02:52.662Z,-0.14
2022-12-19T06:05:19.458Z,-0.10
2022-12-19T06:07:46.599Z,-0.07
2022-12-19T06:10:13.222Z,0.01
2022-12-19T06:12:40.033Z,0.07
2022-12-19T06:15:07.212Z,0.13
2022-12-19T06:17:34.454Z,0.15
2022-12-19T06:20:01.027Z,0.18
2022-12-19T06:22:27.708Z,0.20
2022-12-19T06:24:54.225Z,0.17
2022-12-19T06:27:20.771Z,0.13
2022-12-19T06:29:47.368Z,0.12
2022-12-19T06:32:13.884Z,0.12
2022-12-19T06:35:03.370Z,0.17
2022-12-19T06:37:27.135Z,0.18
2022-12-19T06:39:53.662Z,0.18
2022-12-19T06:42:22.938Z,0.25
2022-12-19T06:44:54.378Z,0.27
2022-12-19T06:47:23.635Z,0.29
2022-12-19T06:49:50.327Z,0.34
2022-12-19T06:52:17.534Z,0.34
2022-12-19T06:54:44.100Z,0.41
2022-12-19T06:57:10.755Z,0.43
2022-12-19T06:59:37.335Z,0.44
2022-12-19T07:02:21.755Z,0.46
2022-12-19T07:04:52.608Z,0.46
2022-12-19T07:07:19.566Z,0.46
2022-12-19T07:09:46.188Z,0.46
2022-12-19T07:12:12.808Z,0.47
2022-12-19T07:14:39.328Z,0.49
2022-12-19T07:17:06.606Z,0.56
2022-12-19T07:19:34.529Z,0.61
2022-12-19T07:22:03.804Z,0.66
2022-12-19T07:24:30.937Z,0.68
2022-12-19T07:26:58.179Z,0.64
2022-12-19T07:29:25.534Z,0.64
2022-12-19T07:31:52.493Z,0.66
2022-12-19T07:34:19.179Z,0.67
2022-12-19T07:36:45.815Z,0.68
2022-12-19T07:39:12.529Z,0.71
2022-12-19T07:41:40.096Z,0.73
2022-12-19T07:44:07.263Z,0.77
2022-12-19T07:46:33.812Z,0.81
2022-12-19T07:49:01.084Z,0.79
2022-12-19T07:51:28.468Z,0.79
2022-12-19T07:53:55.018Z,0.84
2022-12-19T07:56:21.938Z,0.85
2022-12-19T07:58:48.494Z,0.82
2022-12-19T08:01:15.188Z,0.86
2022-12-19T08:03:41.811Z,0.86
2022-12-19T08:06:08.725Z,0.84
2022-12-19T08:08:37.634Z,0.87
2022-12-19T08:11:13.354Z,1.11
2022-12-19T08:13:46.434Z,1.21
2022-12-19T08:16:13.790Z,1.33
2022-12-19T08:18:40.625Z,1.26
2022-12-19T08:21:09.023Z,1.21
2022-12-19T08:23:35.572Z,1.31
2022-12-19T08:26:05.132Z,1.41
2022-12-19T08:28:33.539Z,1.49
2022-12-19T08:31:09.366Z,1.56
2022-12-19T08:33:36.872Z,1.40
2022-12-19T08:36:08.162Z,1.22
2022-12-19T08:38:35.788Z,1.06
2022-12-19T08:41:02.963Z,0.84
2022-12-19T08:43:30.622Z,0.63
2022-12-19T08:45:57.900Z,0.50
2022-12-19T08:48:24.957Z,0.43
2022-12-19T08:50:59.777Z,0.39
2022-12-19T08:53:28.871Z,0.42
2022-12-19T08:55:56.913Z,0.42
2022-12-19T08:58:24.548Z,0.46
2022-12-19T09:00:57.672Z,0.45
2022-12-19T09:03:29.686Z,0.42
2022-12-19T09:06:18.696Z,0.40
2022-12-19T09:08:46.006Z,0.41
2022-12-19T09:11:17.734Z,0.41
2022-12-19T09:13:45.056Z,0.48
2022-12-19T09:16:13.301Z,0.53
2022-12-19T09:18:46.602Z,0.60
2022-12-19T09:21:15.459Z,0.63
2022-12-19T09:23:42.770Z,0.70
2022-12-19T09:26:12.828Z,0.72
2022-12-19T09:28:41.469Z,0.76
2022-12-19T09:31:12.406Z,0.78
2022-12-19T09:33:43.424Z,0.82
2022-12-19T09:36:23.241Z,0.87
2022-12-19T09:38:50.970Z,0.91
2022-12-19T09:41:46.183Z,0.95
2022-12-19T09:44:45.971Z,0.97
2022-12-19T09:47:17.904Z,1.00
2022-12-19T09:49:47.479Z,1.06
2022-12-19T09:52:19.203Z,1.09
2022-12-19T09:55:03.811Z,1.10
2022-12-19T09:57:47.203Z,1.09
2022-12-19T10:00:22.501Z,1.10
2022-12-19T10:03:05.549Z,1.12
2022-12-19T10:07:07.916Z,1.19
2022-12-19T10:10:00.972Z,1.29
2022-12-19T10:12:42.399Z,1.39
2022-12-19T10:15:20.221Z,1.44
2022-12-19T10:18:24.589Z,1.53
2022-12-19T10:21:08.997Z,1.53
2022-12-19T10:24:24.052Z,1.59
2022-12-19T10:26:53.707Z,1.67
2022-12-19T10:29:38.987Z,1.72
2022-12-19T10:32:25.329Z,1.73
2022-12-19T10:34:53.775Z,1.78
2022-12-19T10:37:47.351Z,1.84
2022-12-19T10:40:27.943Z,1.90
2022-12-19T10:43:25.878Z,1.97
2022-12-19T10:46:02.728Z,2.05
2022-12-19T10:48:31.425Z,2.14
2022-12-19T10:50:58.549Z,2.20
2022-12-19T10:53:32.256Z,2.30
2022-12-19T10:56:12.522Z,2.41
2022-12-19T10:58:44.283Z,2.52
2022-12-19T11:01:16.914Z,2.60
2022-12-19T11:03:48.094Z,2.63
2022-12-19T11:06:48.161Z,2.62
2022-12-19T11:09:25.564Z,2.61
2022-12-19T11:14:23.872Z,2.65
2022-12-19T11:20:18.990Z,2.63
2022-12-19T11:29:17.027Z,2.69
2022-12-19T11:29:27.193Z,2.81
2022-12-19T11:30:43.089Z,2.98
2022-12-19T11:30:47.825Z,2.88
2022-12-19T11:32:45.099Z,3.04
2022-12-19T11:35:36.820Z,3.13
2022-12-19T11:38:06.158Z,3.23
2022-12-19T11:40:53.296Z,3.27
2022-12-19T11:43:45.751Z,3.33
2022-12-19T11:46:40.641Z,3.36
2022-12-19T11:49:19.060Z,3.37
2022-12-19T11:52:03.176Z,3.37
2022-12-19T11:54:56.268Z,3.43
2022-12-19T11:57:23.864Z,3.42
2022-12-19T11:59:54.002Z,3.42
2022-12-19T12:02:36.008Z,3.37
2022-12-19T12:05:08.195Z,3.35
2022-12-19T12:08:32.132Z,3.35
2022-12-19T12:13:48.589Z,3.37
2022-12-19T12:23:19.134Z,3.34
2022-12-19T12:31:00.356Z,3.27
2022-12-19T12:31:11.703Z,3.27
2022-12-19T12:31:18.626Z,3.15
2022-12-19T12:31:57.585Z,3.19
2022-12-19T12:32:05.261Z,3.16
2022-12-19T12:35:51.346Z,3.04
2022-12-19T12:40:50.820Z,3.03
2022-12-19T12:43:39.050Z,3.03
2022-12-19T12:46:17.677Z,3.07
2022-12-19T12:48:55.532Z,3.08
2022-12-19T12:51:24.935Z,3.10
2022-12-19T12:54:03.270Z,3.09
2022-12-19T12:56:30.381Z,3.11
2022-12-19T12:58:56.849Z,3.11
2022-12-19T13:01:29.705Z,3.14
2022-12-19T13:04:02.705Z,3.16
2022-12-19T13:06:36.427Z,3.17
2022-12-19T13:09:08.952Z,3.17
2022-12-19T13:11:57.202Z,3.20
2022-12-19T13:14:35.926Z,3.23
2022-12-19T13:17:10.944Z,3.27
2022-12-19T13:19:51.874Z,3.33
2022-12-19T13:22:37.733Z,3.38
2022-12-19T13:25:27.221Z,3.42
2022-12-19T13:28:04.170Z,3.45
2022-12-19T13:30:46.242Z,3.50
2022-12-19T13:33:21.002Z,3.54
2022-12-19T13:39:44.906Z,3.58
2022-12-19T13:40:00.504Z,3.61
2022-12-19T13:42:00.893Z,3.56
2022-12-19T13:44:28.276Z,3.57
2022-12-19T13:46:56.004Z,3.58
2022-12-19T13:49:35.644Z,3.57
2022-12-19T13:52:03.926Z,3.56
2022-12-19T13:54:34.862Z,3.53
2022-12-19T13:57:06.345Z,3.54
2022-12-19T13:59:39.921Z,3.56
2022-12-19T14:02:16.016Z,3.58
2022-12-19T14:04:44.764Z,3.59
2022-12-19T14:07:42.179Z,3.65
2022-12-19T14:11:44.278Z,3.69
2022-12-19T14:13:49.045Z,3.73
2022-12-19T14:16:44.079Z,3.75
2022-12-19T14:19:28.981Z,3.78
2022-12-19T14:22:15.910Z,3.87
2022-12-19T14:28:14.431Z,3.94
2022-12-19T14:28:17.073Z,3.98
2022-12-19T14:30:57.787Z,4.00
2022-12-19T14:33:45.774Z,4.05
2022-12-19T14:36:25.712Z,4.10
2022-12-19T14:39:22.830Z,4.15
2022-12-19T14:42:04.644Z,4.20
2022-12-19T14:52:51.730Z,4.23
2022-12-19T14:53:52.336Z,4.30
2022-12-19T15:02:10.511Z,4.62
2022-12-19T15:04:50.919Z,4.59
2022-12-19T15:07:27.330Z,4.62
2022-12-19T15:11:06.813Z,4.64
2022-12-19T15:14:49.362Z,4.55
2022-12-19T15:16:07.419Z,4.51
2022-12-19T15:18:34.339Z,4.51
2022-12-19T15:21:08.047Z,4.45
2022-12-19T15:23:34.739Z,4.44
2022-12-19T15:26:06.483Z,4.45
2022-12-19T15:28:51.897Z,4.55
2022-12-19T15:31:29.946Z,4.51
2022-12-19T15:36:43.629Z,4.50
2022-12-19T15:39:10.178Z,4.45
2022-12-19T15:41:36.920Z,4.42
2022-12-19T15:44:16.077Z,4.38
2022-12-19T15:46:48.413Z,4.35
2022-12-19T15:49:20.788Z,4.31
2022-12-19T15:51:48.264Z,4.26
2022-12-19T15:54:47.083Z,4.24
2022-12-19T15:57:01.687Z,4.20
2022-12-19T15:59:37.553Z,4.13
2022-12-19T16:02:15.880Z,4.03
2022-12-19T16:04:42.946Z,3.94
2022-12-19T16:07:25.725Z,3.85
2022-12-19T16:09:52.513Z,3.80
2022-12-19T16:12:23.889Z,3.74
2022-12-19T16:14:58.051Z,3.71
2022-12-19T16:17:27.131Z,3.71
2022-12-19T16:19:53.950Z,3.69
2022-12-19T16:22:23.585Z,3.72
2022-12-19T16:24:52.070Z,3.71
2022-12-19T16:27:28.519Z,3.73
2022-12-19T16:29:56.655Z,3.77
2022-12-19T16:32:26.508Z,3.77
2022-12-19T16:34:53.529Z,3.77
2022-12-19T16:37:20.454Z,3.78
2022-12-19T16:39:47.129Z,3.79
2022-12-19T16:42:15.959Z,3.79
2022-12-19T16:44:45.435Z,3.81
2022-12-19T16:47:17.790Z,3.83
2022-12-19T16:49:45.228Z,3.84
2022-12-19T16:52:12.048Z,3.78
2022-12-19T16:54:38.946Z,3.72
2022-12-19T16:57:14.064Z,3.70
2022-12-19T16:59:40.745Z,3.74
2022-12-19T17:02:39.895Z,3.90
2022-12-19T17:05:08.319Z,3.98
2022-12-19T17:07:35.201Z,4.14
2022-12-19T17:10:01.799Z,4.29
2022-12-19T17:12:28.815Z,4.39
2022-12-19T17:14:55.399Z,4.52
2022-12-19T17:17:22.000Z,4.61
2022-12-19T17:19:48.601Z,4.72
2022-12-19T17:22:17.217Z,4.75
2022-12-19T17:24:46.621Z,4.86
2022-12-19T17:27:13.367Z,4.94
2022-12-19T17:29:40.185Z,5.04
2022-12-19T17:32:09.081Z,5.12
2022-12-19T17:34:36.152Z,5.15
2022-12-19T17:37:05.153Z,5.23
2022-12-19T17:39:34.449Z,5.35
2022-12-19T17:42:11.321Z,5.40
2022-12-19T17:44:38.140Z,5.46
2022-12-19T17:47:04.709Z,5.48
2022-12-19T17:49:32.866Z,5.46
2022-12-19T17:51:59.991Z,5.51
2022-12-19T17:54:27.269Z,5.51
2022-12-19T17:56:54.425Z,5.48
2022-12-19T17:59:21.125Z,5.51
2022-12-19T18:01:47.850Z,5.45
2022-12-19T18:04:18.427Z,5.43
2022-12-19T18:06:45.790Z,5.41
2022-12-19T18:09:23.424Z,5.40
2022-12-19T18:11:52.560Z,5.39
2022-12-19T18:14:19.433Z,5.37
2022-12-19T18:16:49.582Z,5.33
2022-12-19T18:19:19.747Z,5.28
2022-12-19T18:21:46.440Z,5.28
2022-12-19T18:24:16.370Z,5.27
2022-12-19T18:26:44.404Z,5.29
2022-12-19T18:29:11.433Z,5.30
2022-12-19T18:31:40.614Z,5.32
2022-12-19T18:34:19.527Z,5.27
2022-12-19T18:36:46.316Z,5.24
2022-12-19T18:39:28.086Z,5.24
2022-12-19T18:41:55.116Z,5.22
2022-12-19T18:44:24.636Z,5.26
2022-12-19T18:46:52.024Z,5.23
2022-12-19T18:49:19.144Z,5.27
2022-12-19T18:51:45.779Z,5.27
2022-12-19T18:54:17.541Z,5.32
2022-12-19T18:56:44.673Z,5.37
2022-12-19T18:59:11.227Z,5.39
2022-12-19T19:01:46.716Z,5.35
2022-12-19T19:04:17.775Z,5.28
2022-12-19T19:06:50.823Z,5.17
2022-12-19T19:09:20.326Z,5.18
2022-12-19T19:11:47.067Z,5.23
2022-12-19T19:14:13.805Z,5.31
2022-12-19T19:16:40.590Z,5.34
2022-12-19T19:19:10.792Z,5.37
2022-12-19T19:21:38.702Z,5.37
2022-12-19T19:24:15.167Z,5.48
2022-12-19T19:26:42.030Z,5.52
2022-12-19T19:29:10.010Z,5.57
2022-12-19T19:31:40.872Z,5.59
2022-12-19T19:34:16.878Z,5.61
2022-12-19T19:36:47.376Z,5.63
2022-12-19T19:39:14.079Z,5.67
2022-12-19T19:41:40.752Z,5.74
2022-12-19T19:44:07.501Z,5.79
2022-12-19T19:46:34.266Z,5.85
2022-12-19T19:49:00.835Z,5.87
2022-12-19T19:51:29.058Z,5.87
2022-12-19T19:53:55.926Z,5.87
2022-12-19T19:56:22.624Z,5.93
2022-12-19T19:58:49.195Z,5.92
2022-12-19T20:01:15.883Z,5.96
2022-12-19T20:03:44.627Z,5.93
2022-12-19T20:06:12.104Z,5.96
2022-12-19T20:08:39.966Z,5.93
2022-12-19T20:11:08.976Z,5.94
2022-12-19T20:13:35.886Z,5.93
2022-12-19T20:16:11.198Z,5.90
2022-12-19T20:18:40.556Z,5.91
2022-12-19T20:21:12.744Z,5.90
2022-12-19T20:23:40.550Z,5.93
2022-12-19T20:26:07.498Z,5.92
2022-12-19T20:28:34.881Z,5.91
2022-12-19T20:31:01.765Z,5.88
2022-12-19T20:33:28.371Z,5.86
2022-12-19T20:36:12.336Z,5.78
2022-12-19T20:38:38.972Z,5.73
2022-12-19T20:41:05.641Z,5.69
2022-12-19T20:43:32.653Z,5.65
2022-12-19T20:46:05.363Z,5.61
2022-12-19T20:48:32.537Z,5.56
2022-12-19T20:51:00.230Z,5.52
2022-12-19T20:53:27.414Z,5.49
2022-12-19T20:55:58.181Z,5.46
2022-12-19T20:58:26.667Z,5.42
2022-12-19T21:01:17.723Z,5.47
2022-12-19T21:03:45.303Z,5.50
2022-12-19T21:06:15.653Z,5.51
2022-12-19T21:08:42.597Z,5.53
2022-12-19T21:11:09.830Z,5.54
2022-12-19T21:13:38.055Z,5.52
2022-12-19T21:16:09.913Z,5.56
2022-12-19T21:18:39.060Z,5.61
2022-12-19T21:21:07.243Z,5.68
2022-12-19T21:23:34.072Z,5.74
2022-12-19T21:26:02.968Z,5.80
2022-12-19T21:28:29.749Z,5.85
2022-12-19T21:30:58.982Z,5.86
2022-12-19T21:33:26.561Z,5.86
2022-12-19T21:35:53.311Z,5.88
2022-12-19T21:38:19.969Z,5.90
2022-12-19T21:40:46.603Z,5.89
2022-12-19T21:43:13.248Z,5.86
2022-12-19T21:45:40.408Z,5.85
2022-12-19T21:48:07.078Z,5.81
2022-12-19T21:50:34.023Z,5.75
2022-12-19T21:53:01.121Z,5.73
2022-12-19T21:55:27.720Z,5.76
2022-12-19T21:57:54.300Z,5.77
2022-12-19T22:00:21.023Z,5.81
2022-12-19T22:03:12.217Z,5.80
2022-12-19T22:05:35.149Z,5.74
2022-12-19T22:08:01.736Z,5.75
2022-12-19T22:10:28.282Z,5.73
2022-12-19T22:12:54.808Z,5.72
2022-12-19T22:15:21.365Z,5.71
2022-12-19T22:17:47.958Z,5.67
2022-12-19T22:20:14.704Z,5.64
2022-12-19T22:22:41.345Z,5.63
2022-12-19T22:25:08.238Z,5.63
2022-12-19T22:27:34.989Z,5.64
2022-12-19T22:30:08.508Z,5.61
2022-12-19T22:32:37.022Z,5.62
2022-12-19T22:35:04.289Z,5.59
2022-12-19T22:37:30.869Z,5.55
2022-12-19T22:40:00.185Z,5.52
2022-12-19T22:42:27.938Z,5.52
2022-12-19T22:44:54.474Z,5.50
2022-12-19T22:47:21.052Z,5.51
2022-12-19T22:49:52.099Z,5.57
2022-12-19T22:52:18.868Z,5.58
2022-12-19T22:54:45.428Z,5.60
2022-12-19T22:57:12.323Z,5.60
2022-12-19T22:59:38.858Z,5.59
2022-12-19T23:02:05.617Z,5.60
2022-12-19T23:04:32.292Z,5.63
2022-12-19T23:06:58.870Z,5.60
2022-12-19T23:09:25.407Z,5.60
2022-12-19T23:11:52.185Z,5.60
2022-12-19T23:14:19.831Z,5.59
2022-12-19T23:16:46.840Z,5.58
2022-12-19T23:19:15.605Z,5.57
2022-12-19T23:21:42.177Z,5.51
2022-12-19T23:24:08.836Z,5.47
2022-12-19T23:26:37.424Z,5.42
2022-12-19T23:29:10.045Z,5.34
2022-12-19T23:31:39.470Z,5.29
2022-12-19T23:34:06.272Z,5.23
2022-12-19T23:37:09.017Z,5.15
2022-12-19T23:39:19.563Z,5.04
2022-12-19T23:41:46.164Z,5.01
2022-12-19T23:44:12.839Z,4.93
2022-12-19T23:46:40.200Z,4.86
2022-12-19T23:49:06.855Z,4.82
2022-12-19T23:51:33.914Z,4.74
2022-12-19T23:54:00.458Z,4.74
2022-12-19T23:56:30.279Z,4.73
2022-12-19T23:58:57.418Z,4.73
